sensor_id;sensor_type;location;lat;lon;timestamp;P1;durP1;ratioP1;P2;durP2;ratioP2
8929;SDS011;4500;49.074;9.110;2023-09-19T00:00:41;1.60;;;1.53;;
8929;SDS011;4500;49.074;9.110;2023-09-19T00:03:11;3.43;;;3.30;;
8929;SDS011;4500;49.074;9.110;2023-09-19T00:05:39;3.83;;;3.67;;
8929;SDS011;4500;49.074;9.110;2023-09-19T00:08:12;5.63;;;5.33;;
8929;SDS011;4500;49.074;9.110;2023-09-19T00:10:43;6.03;;;5.73;;
8929;SDS011;4500;49.074;9.110;2023-09-19T00:13:10;3.03;;;2.93;;
8929;SDS011;4500;49.074;9.110;2023-09-19T00:15:46;4.73;;;4.53;;
8929;SDS011;4500;49.074;9.110;2023-09-19T00:18:17;4.80;;;4.60;;
8929;SDS011;4500;49.074;9.110;2023-09-19T00:20:48;4.10;;;3.90;;
8929;SDS011;4500;49.074;9.110;2023-09-19T00:23:16;4.80;;;4.60;;
8929;SDS011;4500;49.074;9.110;2023-09-19T00:25:46;4.80;;;4.60;;
8929;SDS011;4500;49.074;9.110;2023-09-19T00:28:15;5.47;;;5.23;;
8929;SDS011;4500;49.074;9.110;2023-09-19T00:30:44;5.17;;;4.93;;
8929;SDS011;4500;49.074;9.110;2023-09-19T00:33:13;5.03;;;4.83;;
8929;SDS011;4500;49.074;9.110;2023-09-19T00:35:49;4.53;;;4.33;;
8929;SDS011;4500;49.074;9.110;2023-09-19T00:38:21;4.87;;;4.67;;
8929;SDS011;4500;49.074;9.110;2023-09-19T00:40:51;4.63;;;4.43;;
8929;SDS011;4500;49.074;9.110;2023-09-19T00:43:20;4.83;;;4.63;;
8929;SDS011;4500;49.074;9.110;2023-09-19T00:45:48;4.33;;;4.13;;
8929;SDS011;4500;49.074;9.110;2023-09-19T00:48:19;4.50;;;4.30;;
8929;SDS011;4500;49.074;9.110;2023-09-19T00:50:51;4.60;;;4.40;;
8929;SDS011;4500;49.074;9.110;2023-09-19T00:53:21;4.70;;;4.50;;
8929;SDS011;4500;49.074;9.110;2023-09-19T00:55:49;4.73;;;4.53;;
8929;SDS011;4500;49.074;9.110;2023-09-19T00:58:18;4.40;;;4.20;;
8929;SDS011;4500;49.074;9.110;2023-09-19T01:00:46;5.73;;;5.43;;
8929;SDS011;4500;49.074;9.110;2023-09-19T01:03:15;5.27;;;5.03;;
8929;SDS011;4500;49.074;9.110;2023-09-19T01:05:45;6.00;;;5.70;;
8929;SDS011;4500;49.074;9.110;2023-09-19T01:08:13;4.93;;;4.73;;
8929;SDS011;4500;49.074;9.110;2023-09-19T01:10:51;3.10;;;3.00;;
8929;SDS011;4500;49.074;9.110;2023-09-19T01:13:26;4.87;;;4.67;;
8929;SDS011;4500;49.074;9.110;2023-09-19T01:18:40;1.13;;;1.13;;
8929;SDS011;4500;49.074;9.110;2023-09-19T01:26:56;4.40;;;4.20;;
8929;SDS011;4500;49.074;9.110;2023-09-19T01:29:44;3.97;;;3.80;;
8929;SDS011;4500;49.074;9.110;2023-09-19T01:32:22;3.57;;;3.43;;
8929;SDS011;4500;49.074;9.110;2023-09-19T01:34:55;4.30;;;4.10;;
8929;SDS011;4500;49.074;9.110;2023-09-19T01:37:31;1.50;;;1.47;;
8929;SDS011;4500;49.074;9.110;2023-09-19T01:40:00;0.70;;;0.70;;
8929;SDS011;4500;49.074;9.110;2023-09-19T01:42:45;4.60;;;4.40;;
8929;SDS011;4500;49.074;9.110;2023-09-19T01:45:34;2.40;;;2.30;;
8929;SDS011;4500;49.074;9.110;2023-09-19T01:48:25;4.93;;;4.73;;
8929;SDS011;4500;49.074;9.110;2023-09-19T01:51:02;0.90;;;0.90;;
8929;SDS011;4500;49.074;9.110;2023-09-19T01:53:50;2.40;;;2.30;;
8929;SDS011;4500;49.074;9.110;2023-09-19T01:56:47;1.00;;;1.00;;
8929;SDS011;4500;49.074;9.110;2023-09-19T01:59:34;0.80;;;0.80;;
8929;SDS011;4500;49.074;9.110;2023-09-19T02:02:07;1.57;;;1.50;;
8929;SDS011;4500;49.074;9.110;2023-09-19T02:04:35;1.20;;;1.20;;
8929;SDS011;4500;49.074;9.110;2023-09-19T02:07:03;0.70;;;0.70;;
8929;SDS011;4500;49.074;9.110;2023-09-19T02:09:32;0.80;;;0.80;;
8929;SDS011;4500;49.074;9.110;2023-09-19T02:12:02;0.77;;;0.77;;
8929;SDS011;4500;49.074;9.110;2023-09-19T02:14:34;0.83;;;0.83;;
8929;SDS011;4500;49.074;9.110;2023-09-19T02:17:03;0.80;;;0.80;;
8929;SDS011;4500;49.074;9.110;2023-09-19T02:19:34;0.83;;;0.83;;
8929;SDS011;4500;49.074;9.110;2023-09-19T02:22:04;0.87;;;0.87;;
8929;SDS011;4500;49.074;9.110;2023-09-19T02:24:37;1.63;;;1.57;;
8929;SDS011;4500;49.074;9.110;2023-09-19T02:27:05;1.00;;;1.00;;
8929;SDS011;4500;49.074;9.110;2023-09-19T02:29:34;0.70;;;0.70;;
8929;SDS011;4500;49.074;9.110;2023-09-19T02:32:02;1.33;;;1.33;;
8929;SDS011;4500;49.074;9.110;2023-09-19T02:34:31;0.83;;;0.83;;
8929;SDS011;4500;49.074;9.110;2023-09-19T02:37:00;1.13;;;1.13;;
8929;SDS011;4500;49.074;9.110;2023-09-19T02:39:28;0.80;;;0.80;;
8929;SDS011;4500;49.074;9.110;2023-09-19T02:41:55;1.23;;;1.23;;
8929;SDS011;4500;49.074;9.110;2023-09-19T02:44:23;3.33;;;3.23;;
8929;SDS011;4500;49.074;9.110;2023-09-19T02:46:50;5.50;;;5.30;;
8929;SDS011;4500;49.074;9.110;2023-09-19T02:49:18;4.63;;;4.43;;
8929;SDS011;4500;49.074;9.110;2023-09-19T02:51:46;5.77;;;5.50;;
8929;SDS011;4500;49.074;9.110;2023-09-19T02:54:14;5.53;;;5.27;;
8929;SDS011;4500;49.074;9.110;2023-09-19T02:56:42;5.07;;;4.87;;
8929;SDS011;4500;49.074;9.110;2023-09-19T02:59:10;3.80;;;3.60;;
8929;SDS011;4500;49.074;9.110;2023-09-19T03:01:37;1.53;;;1.47;;
8929;SDS011;4500;49.074;9.110;2023-09-19T03:04:05;0.83;;;0.83;;
8929;SDS011;4500;49.074;9.110;2023-09-19T03:06:33;0.70;;;0.70;;
8929;SDS011;4500;49.074;9.110;2023-09-19T03:09:01;0.90;;;0.90;;
8929;SDS011;4500;49.074;9.110;2023-09-19T03:11:33;1.10;;;1.10;;
8929;SDS011;4500;49.074;9.110;2023-09-19T03:14:00;0.80;;;0.80;;
8929;SDS011;4500;49.074;9.110;2023-09-19T03:16:28;0.80;;;0.80;;
8929;SDS011;4500;49.074;9.110;2023-09-19T03:18:56;1.00;;;1.00;;
8929;SDS011;4500;49.074;9.110;2023-09-19T03:21:24;2.00;;;1.90;;
8929;SDS011;4500;49.074;9.110;2023-09-19T03:23:52;4.43;;;4.23;;
8929;SDS011;4500;49.074;9.110;2023-09-19T03:26:19;4.90;;;4.70;;
8929;SDS011;4500;49.074;9.110;2023-09-19T03:28:47;5.37;;;5.13;;
8929;SDS011;4500;49.074;9.110;2023-09-19T03:31:15;5.13;;;4.93;;
8929;SDS011;4500;49.074;9.110;2023-09-19T03:33:43;6.97;;;6.67;;
8929;SDS011;4500;49.074;9.110;2023-09-19T03:36:11;3.33;;;3.20;;
8929;SDS011;4500;49.074;9.110;2023-09-19T03:38:40;4.37;;;4.17;;
8929;SDS011;4500;49.074;9.110;2023-09-19T03:41:07;1.93;;;1.87;;
8929;SDS011;4500;49.074;9.110;2023-09-19T03:43:34;0.70;;;0.70;;
8929;SDS011;4500;49.074;9.110;2023-09-19T03:46:02;1.00;;;1.00;;
8929;SDS011;4500;49.074;9.110;2023-09-19T03:48:32;0.90;;;0.90;;
8929;SDS011;4500;49.074;9.110;2023-09-19T03:51:00;0.90;;;0.90;;
8929;SDS011;4500;49.074;9.110;2023-09-19T03:53:29;0.70;;;0.70;;
8929;SDS011;4500;49.074;9.110;2023-09-19T03:55:57;1.50;;;1.50;;
8929;SDS011;4500;49.074;9.110;2023-09-19T03:58:24;2.50;;;2.40;;
8929;SDS011;4500;49.074;9.110;2023-09-19T04:00:55;4.93;;;4.73;;
8929;SDS011;4500;49.074;9.110;2023-09-19T04:03:23;4.10;;;3.90;;
8929;SDS011;4500;49.074;9.110;2023-09-19T04:06:02;0.83;;;0.83;;
8929;SDS011;4500;49.074;9.110;2023-09-19T04:08:29;1.07;;;1.07;;
8929;SDS011;4500;49.074;9.110;2023-09-19T04:10:58;1.30;;;1.30;;
8929;SDS011;4500;49.074;9.110;2023-09-19T04:13:25;1.67;;;1.67;;
8929;SDS011;4500;49.074;9.110;2023-09-19T04:15:53;4.20;;;4.00;;
8929;SDS011;4500;49.074;9.110;2023-09-19T04:18:20;4.70;;;4.50;;
8929;SDS011;4500;49.074;9.110;2023-09-19T04:20:50;6.40;;;6.10;;
8929;SDS011;4500;49.074;9.110;2023-09-19T04:23:18;5.03;;;4.83;;
8929;SDS011;4500;49.074;9.110;2023-09-19T04:25:48;5.53;;;5.30;;
8929;SDS011;4500;49.074;9.110;2023-09-19T04:28:16;6.50;;;6.20;;
8929;SDS011;4500;49.074;9.110;2023-09-19T04:30:43;5.13;;;4.93;;
8929;SDS011;4500;49.074;9.110;2023-09-19T04:33:11;2.70;;;2.60;;
8929;SDS011;4500;49.074;9.110;2023-09-19T04:35:41;3.30;;;3.20;;
8929;SDS011;4500;49.074;9.110;2023-09-19T04:38:09;4.23;;;4.03;;
8929;SDS011;4500;49.074;9.110;2023-09-19T04:40:36;1.77;;;1.70;;
8929;SDS011;4500;49.074;9.110;2023-09-19T04:43:06;1.90;;;1.83;;
8929;SDS011;4500;49.074;9.110;2023-09-19T04:45:34;1.30;;;1.30;;
8929;SDS011;4500;49.074;9.110;2023-09-19T04:48:02;1.17;;;1.17;;
8929;SDS011;4500;49.074;9.110;2023-09-19T04:50:29;1.57;;;1.47;;
8929;SDS011;4500;49.074;9.110;2023-09-19T04:52:57;1.10;;;1.10;;
8929;SDS011;4500;49.074;9.110;2023-09-19T04:55:25;1.53;;;1.53;;
8929;SDS011;4500;49.074;9.110;2023-09-19T04:57:53;3.20;;;3.10;;
8929;SDS011;4500;49.074;9.110;2023-09-19T05:00:22;4.87;;;4.67;;
8929;SDS011;4500;49.074;9.110;2023-09-19T05:02:51;5.57;;;5.33;;
8929;SDS011;4500;49.074;9.110;2023-09-19T05:05:19;5.07;;;4.87;;
8929;SDS011;4500;49.074;9.110;2023-09-19T05:07:49;5.87;;;5.57;;
8929;SDS011;4500;49.074;9.110;2023-09-19T05:10:18;4.57;;;4.37;;
8929;SDS011;4500;49.074;9.110;2023-09-19T05:12:46;6.30;;;6.00;;
8929;SDS011;4500;49.074;9.110;2023-09-19T05:15:15;5.53;;;5.27;;
8929;SDS011;4500;49.074;9.110;2023-09-19T05:17:50;4.10;;;3.90;;
8929;SDS011;4500;49.074;9.110;2023-09-19T05:20:24;3.00;;;2.90;;
8929;SDS011;4500;49.074;9.110;2023-09-19T05:23:04;1.80;;;1.70;;
8929;SDS011;4500;49.074;9.110;2023-09-19T05:25:36;1.10;;;1.10;;
8929;SDS011;4500;49.074;9.110;2023-09-19T05:28:06;1.30;;;1.30;;
8929;SDS011;4500;49.074;9.110;2023-09-19T05:30:34;0.80;;;0.80;;
8929;SDS011;4500;49.074;9.110;2023-09-19T05:33:05;1.23;;;1.23;;
8929;SDS011;4500;49.074;9.110;2023-09-19T05:35:34;1.30;;;1.30;;
8929;SDS011;4500;49.074;9.110;2023-09-19T05:38:06;1.93;;;1.87;;
8929;SDS011;4500;49.074;9.110;2023-09-19T05:40:35;1.10;;;1.10;;
8929;SDS011;4500;49.074;9.110;2023-09-19T05:43:05;1.20;;;1.20;;
8929;SDS011;4500;49.074;9.110;2023-09-19T05:45:33;1.17;;;1.17;;
8929;SDS011;4500;49.074;9.110;2023-09-19T05:48:08;1.23;;;1.23;;
8929;SDS011;4500;49.074;9.110;2023-09-19T05:50:38;1.57;;;1.50;;
8929;SDS011;4500;49.074;9.110;2023-09-19T05:53:06;1.93;;;1.87;;
8929;SDS011;4500;49.074;9.110;2023-09-19T05:55:33;0.90;;;0.90;;
8929;SDS011;4500;49.074;9.110;2023-09-19T05:58:02;1.63;;;1.57;;
8929;SDS011;4500;49.074;9.110;2023-09-19T06:00:31;0.83;;;0.83;;
8929;SDS011;4500;49.074;9.110;2023-09-19T06:03:01;1.60;;;1.57;;
8929;SDS011;4500;49.074;9.110;2023-09-19T06:05:29;1.30;;;1.30;;
8929;SDS011;4500;49.074;9.110;2023-09-19T06:08:00;1.03;;;1.03;;
8929;SDS011;4500;49.074;9.110;2023-09-19T06:10:27;0.90;;;0.90;;
8929;SDS011;4500;49.074;9.110;2023-09-19T06:12:55;1.53;;;1.50;;
8929;SDS011;4500;49.074;9.110;2023-09-19T06:15:25;2.47;;;2.37;;
8929;SDS011;4500;49.074;9.110;2023-09-19T06:17:54;3.30;;;3.20;;
8929;SDS011;4500;49.074;9.110;2023-09-19T06:20:23;4.07;;;3.87;;
8929;SDS011;4500;49.074;9.110;2023-09-19T06:22:52;4.60;;;4.40;;
8929;SDS011;4500;49.074;9.110;2023-09-19T06:25:20;5.60;;;5.30;;
8929;SDS011;4500;49.074;9.110;2023-09-19T06:27:50;4.83;;;4.63;;
8929;SDS011;4500;49.074;9.110;2023-09-19T06:30:22;4.40;;;4.20;;
8929;SDS011;4500;49.074;9.110;2023-09-19T06:32:58;4.30;;;4.10;;
8929;SDS011;4500;49.074;9.110;2023-09-19T06:35:27;0.90;;;0.90;;
8929;SDS011;4500;49.074;9.110;2023-09-19T06:37:56;0.97;;;0.97;;
8929;SDS011;4500;49.074;9.110;2023-09-19T06:40:25;1.83;;;1.73;;
8929;SDS011;4500;49.074;9.110;2023-09-19T06:42:54;2.87;;;2.77;;
8929;SDS011;4500;49.074;9.110;2023-09-19T06:45:22;6.63;;;6.20;;
8929;SDS011;4500;49.074;9.110;2023-09-19T06:47:54;3.23;;;3.13;;
8929;SDS011;4500;49.074;9.110;2023-09-19T06:50:25;2.03;;;1.93;;
8929;SDS011;4500;49.074;9.110;2023-09-19T06:52:54;3.10;;;3.00;;
8929;SDS011;4500;49.074;9.110;2023-09-19T06:55:26;1.20;;;1.20;;
8929;SDS011;4500;49.074;9.110;2023-09-19T06:57:59;0.80;;;0.80;;
8929;SDS011;4500;49.074;9.110;2023-09-19T07:00:27;1.10;;;1.10;;
8929;SDS011;4500;49.074;9.110;2023-09-19T07:02:58;0.80;;;0.80;;
8929;SDS011;4500;49.074;9.110;2023-09-19T07:05:28;0.80;;;0.80;;
8929;SDS011;4500;49.074;9.110;2023-09-19T07:07:56;1.20;;;1.20;;
8929;SDS011;4500;49.074;9.110;2023-09-19T07:10:26;1.13;;;1.13;;
8929;SDS011;4500;49.074;9.110;2023-09-19T07:12:56;1.93;;;1.83;;
8929;SDS011;4500;49.074;9.110;2023-09-19T07:15:32;1.00;;;1.00;;
8929;SDS011;4500;49.074;9.110;2023-09-19T07:18:02;1.47;;;1.43;;
8929;SDS011;4500;49.074;9.110;2023-09-19T07:20:31;0.80;;;0.80;;
8929;SDS011;4500;49.074;9.110;2023-09-19T07:22:59;0.77;;;0.77;;
8929;SDS011;4500;49.074;9.110;2023-09-19T07:25:27;0.90;;;0.90;;
8929;SDS011;4500;49.074;9.110;2023-09-19T07:27:56;1.80;;;1.70;;
8929;SDS011;4500;49.074;9.110;2023-09-19T07:30:27;1.00;;;1.00;;
8929;SDS011;4500;49.074;9.110;2023-09-19T07:32:55;1.10;;;1.10;;
8929;SDS011;4500;49.074;9.110;2023-09-19T07:35:23;4.20;;;4.00;;
8929;SDS011;4500;49.074;9.110;2023-09-19T07:37:52;4.63;;;4.43;;
8929;SDS011;4500;49.074;9.110;2023-09-19T07:40:20;5.53;;;5.33;;
8929;SDS011;4500;49.074;9.110;2023-09-19T07:42:47;4.80;;;4.60;;
8929;SDS011;4500;49.074;9.110;2023-09-19T07:45:15;5.47;;;5.23;;
8929;SDS011;4500;49.074;9.110;2023-09-19T07:48:03;0.97;;;0.97;;
8929;SDS011;4500;49.074;9.110;2023-09-19T07:50:40;3.43;;;3.30;;
8929;SDS011;4500;49.074;9.110;2023-09-19T07:53:10;3.87;;;3.67;;
8929;SDS011;4500;49.074;9.110;2023-09-19T07:55:40;3.77;;;3.60;;
8929;SDS011;4500;49.074;9.110;2023-09-19T07:58:08;1.97;;;1.90;;
8929;SDS011;4500;49.074;9.110;2023-09-19T08:00:35;0.70;;;0.70;;
8929;SDS011;4500;49.074;9.110;2023-09-19T08:03:03;1.20;;;1.20;;
8929;SDS011;4500;49.074;9.110;2023-09-19T08:05:43;4.03;;;3.83;;
8929;SDS011;4500;49.074;9.110;2023-09-19T08:08:12;4.50;;;4.30;;
8929;SDS011;4500;49.074;9.110;2023-09-19T08:10:42;4.20;;;4.00;;
8929;SDS011;4500;49.074;9.110;2023-09-19T08:13:12;5.40;;;5.17;;
8929;SDS011;4500;49.074;9.110;2023-09-19T08:15:44;3.77;;;3.57;;
8929;SDS011;4500;49.074;9.110;2023-09-19T08:18:13;5.23;;;5.00;;
8929;SDS011;4500;49.074;9.110;2023-09-19T08:20:41;3.43;;;3.30;;
8929;SDS011;4500;49.074;9.110;2023-09-19T08:23:13;4.90;;;4.70;;
8929;SDS011;4500;49.074;9.110;2023-09-19T08:25:40;4.57;;;4.37;;
8929;SDS011;4500;49.074;9.110;2023-09-19T08:28:07;2.03;;;1.97;;
8929;SDS011;4500;49.074;9.110;2023-09-19T08:30:36;0.80;;;0.80;;
8929;SDS011;4500;49.074;9.110;2023-09-19T08:33:07;1.77;;;1.70;;
8929;SDS011;4500;49.074;9.110;2023-09-19T08:35:34;0.90;;;0.90;;
8929;SDS011;4500;49.074;9.110;2023-09-19T08:38:03;1.10;;;1.10;;
8929;SDS011;4500;49.074;9.110;2023-09-19T08:40:32;1.00;;;1.00;;
8929;SDS011;4500;49.074;9.110;2023-09-19T08:43:03;1.13;;;1.13;;
8929;SDS011;4500;49.074;9.110;2023-09-19T08:45:30;1.10;;;1.10;;
8929;SDS011;4500;49.074;9.110;2023-09-19T08:50:53;4.53;;;4.33;;
8929;SDS011;4500;49.074;9.110;2023-09-19T08:53:26;1.70;;;1.70;;
8929;SDS011;4500;49.074;9.110;2023-09-19T08:56:00;0.70;;;0.70;;
8929;SDS011;4500;49.074;9.110;2023-09-19T08:58:31;1.27;;;1.27;;
8929;SDS011;4500;49.074;9.110;2023-09-19T09:01:02;0.80;;;0.80;;
8929;SDS011;4500;49.074;9.110;2023-09-19T09:03:32;0.90;;;0.90;;
8929;SDS011;4500;49.074;9.110;2023-09-19T09:06:01;0.80;;;0.80;;
8929;SDS011;4500;49.074;9.110;2023-09-19T09:08:30;0.90;;;0.90;;
8929;SDS011;4500;49.074;9.110;2023-09-19T09:10:58;0.70;;;0.70;;
8929;SDS011;4500;49.074;9.110;2023-09-19T09:13:26;1.97;;;1.87;;
8929;SDS011;4500;49.074;9.110;2023-09-19T09:15:54;3.30;;;3.20;;
8929;SDS011;4500;49.074;9.110;2023-09-19T09:18:21;4.97;;;4.77;;
8929;SDS011;4500;49.074;9.110;2023-09-19T09:20:49;4.83;;;4.63;;
8929;SDS011;4500;49.074;9.110;2023-09-19T09:23:16;5.43;;;5.20;;
8929;SDS011;4500;49.074;9.110;2023-09-19T09:25:47;5.27;;;5.07;;
8929;SDS011;4500;49.074;9.110;2023-09-19T09:28:30;1.40;;;1.40;;
8929;SDS011;4500;49.074;9.110;2023-09-19T09:30:58;0.80;;;0.80;;
8929;SDS011;4500;49.074;9.110;2023-09-19T09:33:26;1.70;;;1.70;;
8929;SDS011;4500;49.074;9.110;2023-09-19T09:35:58;1.90;;;1.80;;
8929;SDS011;4500;49.074;9.110;2023-09-19T09:38:28;1.37;;;1.37;;
8929;SDS011;4500;49.074;9.110;2023-09-19T09:40:59;0.80;;;0.80;;
8929;SDS011;4500;49.074;9.110;2023-09-19T09:43:34;1.00;;;1.00;;
8929;SDS011;4500;49.074;9.110;2023-09-19T09:46:11;0.80;;;0.80;;
8929;SDS011;4500;49.074;9.110;2023-09-19T09:48:56;5.03;;;4.83;;
8929;SDS011;4500;49.074;9.110;2023-09-19T09:51:49;5.80;;;5.53;;
8929;SDS011;4500;49.074;9.110;2023-09-19T09:54:29;1.43;;;1.43;;
8929;SDS011;4500;49.074;9.110;2023-09-19T09:57:09;2.07;;;2.00;;
8929;SDS011;4500;49.074;9.110;2023-09-19T09:59:48;3.13;;;3.03;;
8929;SDS011;4500;49.074;9.110;2023-09-19T10:02:43;5.83;;;5.53;;
8929;SDS011;4500;49.074;9.110;2023-09-19T10:05:17;4.90;;;4.70;;
8929;SDS011;4500;49.074;9.110;2023-09-19T10:07:55;2.13;;;2.03;;
8929;SDS011;4500;49.074;9.110;2023-09-19T10:10:36;0.90;;;0.90;;
8929;SDS011;4500;49.074;9.110;2023-09-19T10:13:08;1.73;;;1.67;;
8929;SDS011;4500;49.074;9.110;2023-09-19T10:15:42;4.27;;;4.07;;
8929;SDS011;4500;49.074;9.110;2023-09-19T10:18:37;1.57;;;1.50;;
8929;SDS011;4500;49.074;9.110;2023-09-19T10:21:06;1.63;;;1.57;;
8929;SDS011;4500;49.074;9.110;2023-09-19T10:23:36;1.90;;;1.83;;
8929;SDS011;4500;49.074;9.110;2023-09-19T10:26:05;0.70;;;0.70;;
8929;SDS011;4500;49.074;9.110;2023-09-19T10:28:36;1.87;;;1.80;;
8929;SDS011;4500;49.074;9.110;2023-09-19T10:31:05;0.83;;;0.83;;
8929;SDS011;4500;49.074;9.110;2023-09-19T10:33:36;1.37;;;1.33;;
8929;SDS011;4500;49.074;9.110;2023-09-19T10:36:04;0.87;;;0.87;;
8929;SDS011;4500;49.074;9.110;2023-09-19T10:38:32;1.23;;;1.23;;
8929;SDS011;4500;49.074;9.110;2023-09-19T10:41:00;1.00;;;1.00;;
8929;SDS011;4500;49.074;9.110;2023-09-19T10:43:32;0.83;;;0.83;;
8929;SDS011;4500;49.074;9.110;2023-09-19T10:46:03;0.83;;;0.83;;
8929;SDS011;4500;49.074;9.110;2023-09-19T10:48:34;1.00;;;1.00;;
8929;SDS011;4500;49.074;9.110;2023-09-19T10:51:07;0.70;;;0.70;;
8929;SDS011;4500;49.074;9.110;2023-09-19T10:53:45;4.57;;;4.37;;
8929;SDS011;4500;49.074;9.110;2023-09-19T10:56:38;5.00;;;4.80;;
8929;SDS011;4500;49.074;9.110;2023-09-19T10:59:09;0.70;;;0.70;;
8929;SDS011;4500;49.074;9.110;2023-09-19T11:01:46;3.47;;;3.33;;
8929;SDS011;4500;49.074;9.110;2023-09-19T11:04:35;4.60;;;4.40;;
8929;SDS011;4500;49.074;9.110;2023-09-19T11:09:51;1.93;;;1.87;;
8929;SDS011;4500;49.074;9.110;2023-09-19T11:15:03;1.00;;;1.00;;
8929;SDS011;4500;49.074;9.110;2023-09-19T11:17:41;3.87;;;3.70;;
8929;SDS011;4500;49.074;9.110;2023-09-19T11:30:36;0.80;;;0.80;;
8929;SDS011;4500;49.074;9.110;2023-09-19T11:33:18;2.60;;;2.50;;
8929;SDS011;4500;49.074;9.110;2023-09-19T11:36:01;1.47;;;1.37;;
8929;SDS011;4500;49.074;9.110;2023-09-19T11:46:53;1.70;;;1.63;;
8929;SDS011;4500;49.074;9.110;2023-09-19T11:49:27;3.13;;;3.03;;
8929;SDS011;4500;49.074;9.110;2023-09-19T11:51:59;0.80;;;0.80;;
8929;SDS011;4500;49.074;9.110;2023-09-19T11:54:28;0.80;;;0.80;;
8929;SDS011;4500;49.074;9.110;2023-09-19T11:56:59;0.67;;;0.67;;
8929;SDS011;4500;49.074;9.110;2023-09-19T11:59:28;0.60;;;0.60;;
8929;SDS011;4500;49.074;9.110;2023-09-19T12:02:06;1.03;;;1.03;;
8929;SDS011;4500;49.074;9.110;2023-09-19T12:07:15;0.97;;;0.97;;
8929;SDS011;4500;49.074;9.110;2023-09-19T12:09:50;4.27;;;4.07;;
8929;SDS011;4500;49.074;9.110;2023-09-19T12:12:30;0.60;;;0.60;;
8929;SDS011;4500;49.074;9.110;2023-09-19T12:14:59;0.70;;;0.70;;
8929;SDS011;4500;49.074;9.110;2023-09-19T12:17:37;0.70;;;0.70;;
8929;SDS011;4500;49.074;9.110;2023-09-19T12:20:06;0.70;;;0.70;;
8929;SDS011;4500;49.074;9.110;2023-09-19T12:22:43;3.97;;;3.80;;
8929;SDS011;4500;49.074;9.110;2023-09-19T12:25:13;6.17;;;5.87;;
8929;SDS011;4500;49.074;9.110;2023-09-19T12:27:44;4.73;;;4.53;;
8929;SDS011;4500;49.074;9.110;2023-09-19T12:30:27;3.27;;;3.17;;
8929;SDS011;4500;49.074;9.110;2023-09-19T12:32:55;1.83;;;1.73;;
8929;SDS011;4500;49.074;9.110;2023-09-19T12:35:29;1.40;;;1.40;;
8929;SDS011;4500;49.074;9.110;2023-09-19T12:38:02;0.70;;;0.70;;
8929;SDS011;4500;49.074;9.110;2023-09-19T12:40:31;0.73;;;0.73;;
8929;SDS011;4500;49.074;9.110;2023-09-19T12:43:01;0.60;;;0.60;;
8929;SDS011;4500;49.074;9.110;2023-09-19T12:45:32;2.97;;;2.57;;
8929;SDS011;4500;49.074;9.110;2023-09-19T12:48:21;0.70;;;0.70;;
8929;SDS011;4500;49.074;9.110;2023-09-19T12:51:06;1.57;;;1.57;;
8929;SDS011;4500;49.074;9.110;2023-09-19T12:53:40;3.13;;;3.00;;
8929;SDS011;4500;49.074;9.110;2023-09-19T12:56:17;4.10;;;3.90;;
8929;SDS011;4500;49.074;9.110;2023-09-19T12:58:51;4.40;;;4.20;;
8929;SDS011;4500;49.074;9.110;2023-09-19T13:01:23;3.37;;;3.27;;
8929;SDS011;4500;49.074;9.110;2023-09-19T13:04:11;2.40;;;2.30;;
8929;SDS011;4500;49.074;9.110;2023-09-19T13:06:39;2.70;;;2.60;;
8929;SDS011;4500;49.074;9.110;2023-09-19T13:09:10;4.17;;;3.97;;
8929;SDS011;4500;49.074;9.110;2023-09-19T13:11:38;1.70;;;1.63;;
8929;SDS011;4500;49.074;9.110;2023-09-19T13:17:07;1.57;;;1.50;;
8929;SDS011;4500;49.074;9.110;2023-09-19T13:19:46;5.63;;;5.37;;
8929;SDS011;4500;49.074;9.110;2023-09-19T13:22:41;4.20;;;4.00;;
8929;SDS011;4500;49.074;9.110;2023-09-19T13:25:15;3.37;;;3.23;;
8929;SDS011;4500;49.074;9.110;2023-09-19T13:30:23;3.33;;;3.23;;
8929;SDS011;4500;49.074;9.110;2023-09-19T13:32:52;4.73;;;4.53;;
8929;SDS011;4500;49.074;9.110;2023-09-19T13:35:20;3.77;;;3.60;;
8929;SDS011;4500;49.074;9.110;2023-09-19T13:37:48;4.53;;;4.33;;
8929;SDS011;4500;49.074;9.110;2023-09-19T13:40:18;3.70;;;3.53;;
8929;SDS011;4500;49.074;9.110;2023-09-19T13:42:45;5.67;;;5.43;;
8929;SDS011;4500;49.074;9.110;2023-09-19T13:45:13;4.47;;;4.27;;
8929;SDS011;4500;49.074;9.110;2023-09-19T13:47:44;4.10;;;3.90;;
8929;SDS011;4500;49.074;9.110;2023-09-19T13:50:11;2.10;;;2.00;;
8929;SDS011;4500;49.074;9.110;2023-09-19T13:52:39;3.13;;;3.00;;
8929;SDS011;4500;49.074;9.110;2023-09-19T13:55:07;1.43;;;1.40;;
8929;SDS011;4500;49.074;9.110;2023-09-19T13:57:35;0.70;;;0.70;;
8929;SDS011;4500;49.074;9.110;2023-09-19T14:00:03;0.70;;;0.70;;
8929;SDS011;4500;49.074;9.110;2023-09-19T14:02:31;0.63;;;0.63;;
8929;SDS011;4500;49.074;9.110;2023-09-19T14:04:59;1.07;;;1.07;;
8929;SDS011;4500;49.074;9.110;2023-09-19T14:07:28;0.70;;;0.70;;
8929;SDS011;4500;49.074;9.110;2023-09-19T14:09:55;1.93;;;1.83;;
8929;SDS011;4500;49.074;9.110;2023-09-19T14:12:23;3.47;;;3.37;;
8929;SDS011;4500;49.074;9.110;2023-09-19T14:14:50;4.00;;;3.80;;
8929;SDS011;4500;49.074;9.110;2023-09-19T14:17:17;4.07;;;3.90;;
8929;SDS011;4500;49.074;9.110;2023-09-19T14:19:45;3.50;;;3.40;;
8929;SDS011;4500;49.074;9.110;2023-09-19T14:22:12;3.33;;;3.23;;
8929;SDS011;4500;49.074;9.110;2023-09-19T14:24:40;3.10;;;3.00;;
8929;SDS011;4500;49.074;9.110;2023-09-19T14:27:08;1.07;;;1.03;;
8929;SDS011;4500;49.074;9.110;2023-09-19T14:29:37;1.23;;;1.20;;
8929;SDS011;4500;49.074;9.110;2023-09-19T14:32:04;0.60;;;0.60;;
8929;SDS011;4500;49.074;9.110;2023-09-19T14:34:32;0.70;;;0.70;;
8929;SDS011;4500;49.074;9.110;2023-09-19T14:37:00;1.03;;;1.03;;
8929;SDS011;4500;49.074;9.110;2023-09-19T14:39:28;0.67;;;0.67;;
8929;SDS011;4500;49.074;9.110;2023-09-19T14:41:56;1.77;;;1.73;;
8929;SDS011;4500;49.074;9.110;2023-09-19T14:44:24;2.40;;;2.30;;
8929;SDS011;4500;49.074;9.110;2023-09-19T14:46:51;4.03;;;3.87;;
8929;SDS011;4500;49.074;9.110;2023-09-19T14:49:19;3.70;;;3.53;;
8929;SDS011;4500;49.074;9.110;2023-09-19T14:51:46;3.80;;;3.63;;
8929;SDS011;4500;49.074;9.110;2023-09-19T14:54:14;3.03;;;2.93;;
8929;SDS011;4500;49.074;9.110;2023-09-19T14:56:45;3.57;;;3.43;;
8929;SDS011;4500;49.074;9.110;2023-09-19T14:59:20;3.67;;;3.53;;
8929;SDS011;4500;49.074;9.110;2023-09-19T15:01:47;3.67;;;3.50;;
8929;SDS011;4500;49.074;9.110;2023-09-19T15:04:17;4.27;;;4.07;;
8929;SDS011;4500;49.074;9.110;2023-09-19T15:06:44;3.77;;;3.60;;
8929;SDS011;4500;49.074;9.110;2023-09-19T15:09:13;4.00;;;3.80;;
8929;SDS011;4500;49.074;9.110;2023-09-19T15:11:40;2.77;;;2.67;;
8929;SDS011;4500;49.074;9.110;2023-09-19T15:14:07;1.43;;;1.40;;
8929;SDS011;4500;49.074;9.110;2023-09-19T15:16:35;0.60;;;0.60;;
8929;SDS011;4500;49.074;9.110;2023-09-19T15:19:03;1.07;;;1.07;;
8929;SDS011;4500;49.074;9.110;2023-09-19T15:21:31;0.60;;;0.60;;
8929;SDS011;4500;49.074;9.110;2023-09-19T15:23:59;2.90;;;2.70;;
8929;SDS011;4500;49.074;9.110;2023-09-19T15:26:26;0.80;;;0.80;;
8929;SDS011;4500;49.074;9.110;2023-09-19T15:28:54;2.57;;;2.47;;
8929;SDS011;4500;49.074;9.110;2023-09-19T15:31:21;2.97;;;2.87;;
8929;SDS011;4500;49.074;9.110;2023-09-19T15:33:49;3.37;;;3.27;;
8929;SDS011;4500;49.074;9.110;2023-09-19T15:36:18;3.23;;;3.13;;
8929;SDS011;4500;49.074;9.110;2023-09-19T15:41:30;0.60;;;0.60;;
8929;SDS011;4500;49.074;9.110;2023-09-19T15:44:00;0.67;;;0.67;;
8929;SDS011;4500;49.074;9.110;2023-09-19T15:46:31;0.60;;;0.60;;
8929;SDS011;4500;49.074;9.110;2023-09-19T15:49:03;0.97;;;0.97;;
8929;SDS011;4500;49.074;9.110;2023-09-19T15:51:31;0.80;;;0.80;;
8929;SDS011;4500;49.074;9.110;2023-09-19T15:53:58;1.83;;;1.73;;
8929;SDS011;4500;49.074;9.110;2023-09-19T15:56:29;0.73;;;0.73;;
8929;SDS011;4500;49.074;9.110;2023-09-19T15:58:57;0.77;;;0.77;;
8929;SDS011;4500;49.074;9.110;2023-09-19T16:01:25;2.20;;;2.10;;
8929;SDS011;4500;49.074;9.110;2023-09-19T16:03:53;2.93;;;2.83;;
8929;SDS011;4500;49.074;9.110;2023-09-19T16:06:25;1.83;;;1.73;;
8929;SDS011;4500;49.074;9.110;2023-09-19T16:08:55;2.23;;;2.13;;
8929;SDS011;4500;49.074;9.110;2023-09-19T16:11:25;2.20;;;2.10;;
8929;SDS011;4500;49.074;9.110;2023-09-19T16:13:54;2.40;;;2.30;;
8929;SDS011;4500;49.074;9.110;2023-09-19T16:16:23;3.27;;;3.17;;
8929;SDS011;4500;49.074;9.110;2023-09-19T16:18:52;3.73;;;3.60;;
8929;SDS011;4500;49.074;9.110;2023-09-19T16:21:31;0.80;;;0.80;;
8929;SDS011;4500;49.074;9.110;2023-09-19T16:24:02;0.60;;;0.60;;